createdAt,value
2023-02-18T00:01:51.311Z,92.28
2023-02-18T00:04:19.222Z,91.21
2023-02-18T00:06:47.785Z,91.65
2023-02-18T00:09:15.741Z,91.33
2023-02-18T00:11:43.834Z,91.91
2023-02-18T00:14:14.942Z,91.53
2023-02-18T00:16:44.836Z,92.20
2023-02-18T00:19:16.225Z,93.40
2023-02-18T00:21:45.454Z,93.31
2023-02-18T00:24:15.654Z,92.01
2023-02-18T00:26:44.796Z,91.46
2023-02-18T00:29:13.143Z,92.30
2023-02-18T00:31:43.044Z,92.22
2023-02-18T00:34:13.141Z,92.55
2023-02-18T00:36:41.982Z,92.95
2023-02-18T00:39:11.700Z,92.12
2023-02-18T00:42:05.873Z,91.58
2023-02-18T00:44:33.726Z,92.05
2023-02-18T00:47:01.903Z,92.85
2023-02-18T00:49:29.975Z,91.78
2023-02-18T00:51:58.172Z,90.59
2023-02-18T00:54:26.124Z,91.95
2023-02-18T00:56:54.321Z,91.43
2023-02-18T00:59:22.211Z,93.36
2023-02-18T01:01:50.471Z,93.54
2023-02-18T01:04:18.800Z,93.81
2023-02-18T01:06:47.323Z,93.33
2023-02-18T01:09:15.216Z,93.26
2023-02-18T01:11:43.462Z,93.77
2023-02-18T01:14:11.467Z,92.60
2023-02-18T01:16:39.922Z,92.78
2023-02-18T01:19:09.547Z,93.46
2023-02-18T01:21:39.630Z,94.03
2023-02-18T01:24:07.647Z,94.08
2023-02-18T01:26:36.781Z,94.41
2023-02-18T01:29:04.628Z,94.27
2023-02-18T01:31:33.311Z,94.01
2023-02-18T01:34:01.252Z,94.52
2023-02-18T01:36:30.638Z,94.55
2023-02-18T01:38:58.495Z,95.17
2023-02-18T01:41:26.667Z,95.91
2023-02-18T01:44:16.636Z,95.54
2023-02-18T01:46:47.270Z,95.71
2023-02-18T01:49:24.080Z,96.14
2023-02-18T01:51:57.287Z,96.47
2023-02-18T01:54:50.601Z,96.34
2023-02-18T01:57:24.279Z,95.80
2023-02-18T02:00:00.139Z,93.05
2023-02-18T02:02:35.695Z,94.22
2023-02-18T02:05:04.061Z,94.41
2023-02-18T02:07:32.421Z,97.49
2023-02-18T02:10:00.900Z,97.97
2023-02-18T02:12:47.777Z,98.59
2023-02-18T02:15:34.041Z,96.33
2023-02-18T02:18:23.797Z,96.03
2023-02-18T02:21:13.221Z,95.43
2023-02-18T02:24:20.010Z,93.75
2023-02-18T02:26:59.917Z,94.22
2023-02-18T02:29:49.959Z,94.24
2023-02-18T02:32:37.500Z,95.13
2023-02-18T02:35:14.560Z,95.84
2023-02-18T02:37:53.550Z,93.94
2023-02-18T02:40:55.392Z,93.66
2023-02-18T02:43:38.440Z,94.41
2023-02-18T02:46:23.775Z,93.48
2023-02-18T02:49:17.856Z,92.17
2023-02-18T02:51:48.562Z,94.27
2023-02-18T02:54:24.133Z,95.38
2023-02-18T02:57:30.084Z,96.71
2023-02-18T03:00:12.773Z,95.05
2023-02-18T03:03:00.535Z,96.78
2023-02-18T03:06:00.949Z,95.50
2023-02-18T03:08:49.746Z,96.05
2023-02-18T03:11:18.835Z,95.30
2023-02-18T03:14:10.590Z,96.98
2023-02-18T03:16:57.646Z,96.62
2023-02-18T03:19:39.617Z,96.16
2023-02-18T03:22:32.439Z,95.41
2023-02-18T03:25:05.526Z,94.29
2023-02-18T03:27:58.118Z,94.00
2023-02-18T03:30:33.361Z,94.92
2023-02-18T03:33:06.299Z,94.23
2023-02-18T03:35:37.345Z,96.53
2023-02-18T03:38:21.192Z,96.61
2023-02-18T03:40:49.667Z,96.77
2023-02-18T03:43:18.283Z,96.75
2023-02-18T03:45:46.944Z,99.37
2023-02-18T03:48:14.797Z,100.00
2023-02-18T03:50:42.955Z,98.56
2023-02-18T03:53:10.779Z,100.00
2023-02-18T03:55:38.914Z,100.00
2023-02-18T03:58:06.987Z,100.00
2023-02-18T04:00:35.463Z,100.00
2023-02-18T04:03:03.570Z,100.00
2023-02-18T04:05:32.055Z,100.00
2023-02-18T04:07:59.901Z,100.00
2023-02-18T04:10:28.221Z,100.00
2023-02-18T04:12:56.104Z,100.00
2023-02-18T04:15:24.380Z,100.00
2023-02-18T04:17:52.609Z,100.00
2023-02-18T04:20:20.849Z,100.00
2023-02-18T04:22:49.180Z,100.00
2023-02-18T04:25:17.789Z,100.00
2023-02-18T04:27:45.719Z,100.00
2023-02-18T04:30:15.142Z,100.00
2023-02-18T04:32:44.419Z,100.00
2023-02-18T04:35:12.722Z,100.00
2023-02-18T04:37:40.579Z,100.00
2023-02-18T04:40:09.560Z,100.00
2023-02-18T04:42:37.770Z,100.00
2023-02-18T04:45:06.518Z,100.00
2023-02-18T04:47:34.382Z,100.00
2023-02-18T04:50:02.800Z,100.00
2023-02-18T04:52:30.700Z,100.00
2023-02-18T04:54:59.556Z,100.00
2023-02-18T04:57:27.418Z,100.00
2023-02-18T04:59:55.610Z,100.00
2023-02-18T05:02:23.541Z,100.00
2023-02-18T05:04:51.794Z,100.00
2023-02-18T05:07:19.636Z,100.00
2023-02-18T05:09:47.998Z,100.00
2023-02-18T05:12:15.866Z,100.00
2023-02-18T05:14:44.126Z,100.00
2023-02-18T05:17:12.049Z,100.00
2023-02-18T05:19:40.363Z,100.00
2023-02-18T05:22:08.386Z,100.00
2023-02-18T05:24:36.552Z,100.00
2023-02-18T05:27:04.478Z,100.00
2023-02-18T05:29:32.707Z,100.00
2023-02-18T05:32:00.584Z,100.00
2023-02-18T05:34:28.840Z,100.00
2023-02-18T05:36:56.672Z,100.00
2023-02-18T05:39:24.921Z,100.00
2023-02-18T05:41:52.796Z,100.00
2023-02-18T05:44:30.559Z,100.00
2023-02-18T05:47:11.048Z,100.00
2023-02-18T05:49:42.197Z,100.00
2023-02-18T05:52:11.399Z,100.00
2023-02-18T05:54:40.223Z,100.00
2023-02-18T05:57:08.425Z,100.00
2023-02-18T05:59:36.811Z,100.00
2023-02-18T06:02:04.759Z,100.00
2023-02-18T06:04:33.035Z,100.00
2023-02-18T06:07:00.926Z,100.00
2023-02-18T06:09:29.185Z,100.00
2023-02-18T06:11:57.346Z,100.00
2023-02-18T06:14:25.686Z,100.00
2023-02-18T06:16:53.615Z,100.00
2023-02-18T06:19:21.805Z,100.00
2023-02-18T06:21:49.835Z,100.00
2023-02-18T06:24:18.019Z,100.00
2023-02-18T06:26:45.863Z,100.00
2023-02-18T06:29:14.047Z,100.00
2023-02-18T06:31:42.030Z,100.00
2023-02-18T06:34:10.314Z,100.00
2023-02-18T06:36:38.330Z,100.00
2023-02-18T06:39:06.866Z,100.00
2023-02-18T06:41:35.271Z,100.00
2023-02-18T06:44:03.685Z,100.00
2023-02-18T06:46:31.606Z,100.00
2023-02-18T06:49:00.186Z,100.00
2023-02-18T06:51:28.580Z,100.00
2023-02-18T06:53:56.751Z,100.00
2023-02-18T06:56:24.652Z,100.00
2023-02-18T06:58:52.917Z,100.00
2023-02-18T07:01:20.749Z,100.00
2023-02-18T07:03:50.264Z,100.00
2023-02-18T07:06:18.467Z,100.00
2023-02-18T07:08:46.577Z,100.00
2023-02-18T07:11:14.578Z,100.00
2023-02-18T07:13:42.820Z,100.00
2023-02-18T07:16:10.990Z,100.00
2023-02-18T07:18:39.611Z,100.00
2023-02-18T07:21:07.698Z,100.00
2023-02-18T07:23:35.885Z,100.00
2023-02-18T07:26:09.484Z,100.00
2023-02-18T07:28:38.553Z,100.00
2023-02-18T07:31:07.101Z,100.00
2023-02-18T07:33:35.428Z,100.00
2023-02-18T07:36:04.495Z,100.00
2023-02-18T07:38:32.966Z,100.00
2023-02-18T07:41:01.041Z,100.00
2023-02-18T07:43:29.231Z,100.00
2023-02-18T07:45:57.402Z,100.00
2023-02-18T07:48:26.220Z,100.00
2023-02-18T07:50:54.193Z,100.00
2023-02-18T07:53:22.520Z,100.00
2023-02-18T07:55:50.702Z,100.00
2023-02-18T07:58:20.408Z,100.00
2023-02-18T08:00:49.749Z,100.00
2023-02-18T08:03:19.598Z,100.00
2023-02-18T08:05:52.144Z,100.00
2023-02-18T08:08:24.127Z,100.00
2023-02-18T08:10:53.636Z,100.00
2023-02-18T08:13:22.378Z,100.00
2023-02-18T08:15:50.718Z,100.00
2023-02-18T08:18:21.570Z,100.00
2023-02-18T08:20:51.970Z,100.00
2023-02-18T08:23:22.475Z,100.00
2023-02-18T08:25:52.044Z,100.00
2023-02-18T08:28:24.651Z,100.00
2023-02-18T08:30:54.925Z,100.00
2023-02-18T08:33:24.601Z,100.00
2023-02-18T08:35:56.353Z,100.00
2023-02-18T08:38:25.741Z,100.00
2023-02-18T08:41:05.562Z,100.00
2023-02-18T08:43:34.632Z,100.00
2023-02-18T08:46:03.402Z,100.00
2023-02-18T08:48:31.666Z,100.00
2023-02-18T08:51:00.372Z,100.00
2023-02-18T08:53:28.510Z,100.00
2023-02-18T08:55:56.373Z,100.00
2023-02-18T08:58:24.705Z,100.00
2023-02-18T09:00:52.545Z,100.00
2023-02-18T09:03:20.712Z,100.00
2023-02-18T09:05:48.542Z,100.00
2023-02-18T09:08:16.727Z,100.00
2023-02-18T09:10:46.299Z,100.00
2023-02-18T09:13:14.868Z,100.00
2023-02-18T09:15:42.755Z,100.00
2023-02-18T09:18:11.085Z,100.00
2023-02-18T09:20:40.584Z,100.00
2023-02-18T09:23:08.863Z,100.00
2023-02-18T09:25:40.581Z,100.00
2023-02-18T09:28:08.891Z,100.00
2023-02-18T09:30:36.871Z,100.00
2023-02-18T09:33:05.633Z,100.00
2023-02-18T09:35:33.567Z,100.00
2023-02-18T09:38:01.835Z,100.00
2023-02-18T09:40:33.402Z,100.00
2023-02-18T09:43:02.297Z,100.00
2023-02-18T09:45:30.726Z,100.00
2023-02-18T09:48:00.200Z,100.00
2023-02-18T09:50:32.214Z,100.00
2023-02-18T09:53:03.678Z,100.00
2023-02-18T09:55:39.572Z,100.00
2023-02-18T09:58:14.557Z,100.00
2023-02-18T10:01:19.197Z,100.00
2023-02-18T10:03:47.791Z,100.00
2023-02-18T10:06:26.541Z,100.00
2023-02-18T10:08:55.822Z,100.00
2023-02-18T10:11:42.822Z,100.00
2023-02-18T10:14:13.925Z,100.00
2023-02-18T10:16:44.569Z,100.00
2023-02-18T10:19:31.048Z,100.00
2023-02-18T10:22:01.367Z,100.00
2023-02-18T10:24:29.390Z,100.00
2023-02-18T10:26:58.474Z,100.00
2023-02-18T10:29:27.850Z,100.00
2023-02-18T10:32:04.434Z,100.00
2023-02-18T10:34:52.338Z,100.00
2023-02-18T10:37:55.027Z,100.00
2023-02-18T10:40:50.790Z,100.00
2023-02-18T10:43:21.456Z,100.00
2023-02-18T10:46:01.360Z,100.00
2023-02-18T10:48:41.521Z,100.00
2023-02-18T10:51:32.313Z,100.00
2023-02-18T10:54:01.136Z,100.00
2023-02-18T10:56:49.062Z,100.00
2023-02-18T10:59:32.516Z,100.00
2023-02-18T11:02:14.030Z,100.00
2023-02-18T11:04:45.721Z,100.00
2023-02-18T11:07:22.233Z,100.00
2023-02-18T11:09:54.025Z,100.00
2023-02-18T11:12:46.435Z,100.00
2023-02-18T11:15:14.207Z,100.00
2023-02-18T11:17:44.810Z,100.00
2023-02-18T11:20:33.640Z,100.00
2023-02-18T11:23:06.441Z,100.00
2023-02-18T11:25:36.944Z,100.00
2023-02-18T11:28:23.276Z,100.00
2023-02-18T11:30:56.859Z,100.00
2023-02-18T11:33:33.938Z,100.00
2023-02-18T11:36:18.267Z,100.00
2023-02-18T11:38:50.316Z,100.00
2023-02-18T11:41:22.945Z,100.00
2023-02-18T11:43:54.339Z,100.00
2023-02-18T11:46:25.614Z,100.00
2023-02-18T11:48:54.468Z,100.00
2023-02-18T11:51:28.447Z,100.00
2023-02-18T11:54:05.627Z,100.00
2023-02-18T11:56:35.833Z,100.00
2023-02-18T11:59:05.459Z,100.00
2023-02-18T12:01:55.272Z,99.33
2023-02-18T12:04:40.943Z,96.39
2023-02-18T12:07:25.486Z,94.27
2023-02-18T12:09:59.093Z,95.05
2023-02-18T12:12:33.785Z,97.09
2023-02-18T12:15:02.143Z,96.80
2023-02-18T12:18:05.234Z,99.71
2023-02-18T12:20:51.297Z,97.81
2023-02-18T12:23:47.085Z,100.00
2023-02-18T12:26:25.181Z,100.00
2023-02-18T12:29:22.758Z,99.65
2023-02-18T12:32:17.497Z,96.60
2023-02-18T12:34:59.984Z,98.55
2023-02-18T12:38:01.395Z,98.04
2023-02-18T12:40:48.537Z,98.51
2023-02-18T12:43:31.414Z,94.19
2023-02-18T12:46:20.332Z,96.61
2023-02-18T12:49:23.624Z,91.50
2023-02-18T12:52:07.140Z,89.78
2023-02-18T12:55:12.534Z,87.00
2023-02-18T12:57:48.637Z,88.52
2023-02-18T13:00:52.233Z,88.39
2023-02-18T13:03:47.199Z,87.54
2023-02-18T13:06:41.363Z,85.79
2023-02-18T13:09:35.203Z,82.98
2023-02-18T13:12:23.088Z,79.26
2023-02-18T13:15:00.566Z,80.64
2023-02-18T13:17:35.940Z,77.32
2023-02-18T13:20:14.581Z,75.25
2023-02-18T13:22:44.343Z,72.97
2023-02-18T13:25:14.379Z,74.90
2023-02-18T13:27:54.328Z,75.16
2023-02-18T13:30:51.091Z,79.42
2023-02-18T13:33:37.602Z,76.26
2023-02-18T13:36:11.233Z,74.04
2023-02-18T13:39:11.794Z,71.48
2023-02-18T13:41:42.535Z,71.69
2023-02-18T13:44:23.527Z,73.01
2023-02-18T13:46:54.303Z,71.28
2023-02-18T13:49:32.420Z,70.27
2023-02-18T13:52:02.173Z,71.60
2023-02-18T13:54:45.204Z,71.62
2023-02-18T13:57:21.178Z,70.21
2023-02-18T14:00:02.383Z,69.28
2023-02-18T14:02:35.759Z,69.59
2023-02-18T14:05:21.290Z,68.86
2023-02-18T14:08:06.550Z,67.87
2023-02-18T14:10:37.198Z,65.45
2023-02-18T14:13:23.092Z,64.33
2023-02-18T14:15:57.995Z,62.79
2023-02-18T14:18:45.746Z,61.64
2023-02-18T14:21:14.132Z,60.18
2023-02-18T14:23:52.131Z,61.81
2023-02-18T14:26:34.503Z,61.95
2023-02-18T14:29:19.094Z,62.18
2023-02-18T14:31:54.908Z,62.45
2023-02-18T14:35:04.294Z,61.86
2023-02-18T14:37:48.533Z,59.46
2023-02-18T14:40:27.035Z,59.90
2023-02-18T14:43:01.368Z,59.65
2023-02-18T14:46:15.495Z,60.08
2023-02-18T14:49:03.309Z,60.26
2023-02-18T14:51:34.322Z,60.04
2023-02-18T14:54:06.933Z,60.05
2023-02-18T14:56:52.044Z,60.91
2023-02-18T14:59:22.759Z,61.31
2023-02-18T15:01:55.673Z,62.62
2023-02-18T15:04:26.302Z,62.16
2023-02-18T15:07:05.806Z,62.47
2023-02-18T15:09:34.075Z,61.83
2023-02-18T15:12:05.875Z,62.76
2023-02-18T15:14:37.884Z,62.09
2023-02-18T15:17:11.517Z,62.07
2023-02-18T15:19:43.774Z,62.66
2023-02-18T15:22:23.682Z,62.12
2023-02-18T15:24:54.761Z,61.06
2023-02-18T15:27:32.375Z,59.15
2023-02-18T15:30:29.259Z,57.22
2023-02-18T15:33:01.171Z,57.09
2023-02-18T15:35:33.279Z,57.32
2023-02-18T15:38:01.770Z,61.78
2023-02-18T15:40:33.600Z,62.09
2023-02-18T15:43:04.448Z,60.84
2023-02-18T15:45:45.257Z,59.45
2023-02-18T15:48:22.486Z,62.40
2023-02-18T15:50:54.699Z,64.69
2023-02-18T15:53:25.277Z,66.16
2023-02-18T15:55:54.872Z,65.32
2023-02-18T15:58:28.727Z,66.90
2023-02-18T16:01:00.418Z,65.53
2023-02-18T16:03:52.863Z,66.68
2023-02-18T16:06:28.858Z,65.56
2023-02-18T16:09:12.720Z,69.17
2023-02-18T16:11:45.862Z,70.91
2023-02-18T16:14:34.464Z,71.52
2023-02-18T16:17:19.572Z,73.04
2023-02-18T16:20:04.426Z,72.90
2023-02-18T16:22:37.028Z,72.57
2023-02-18T16:25:10.668Z,73.18
2023-02-18T16:27:53.102Z,73.90
2023-02-18T16:30:24.527Z,75.28
2023-02-18T16:32:54.480Z,77.43
2023-02-18T16:35:23.919Z,77.10
2023-02-18T16:37:53.935Z,78.32
2023-02-18T16:40:23.763Z,78.86
2023-02-18T16:42:53.434Z,80.18
2023-02-18T16:45:35.030Z,80.90
2023-02-18T16:48:05.803Z,81.16
2023-02-18T16:50:34.400Z,81.89
2023-02-18T16:53:02.730Z,82.33
2023-02-18T16:55:31.344Z,82.75
2023-02-18T16:57:59.586Z,83.39
2023-02-18T17:00:27.496Z,84.30
2023-02-18T17:02:59.340Z,83.72
2023-02-18T17:05:31.297Z,84.14
2023-02-18T17:08:14.770Z,84.22
2023-02-18T17:10:43.050Z,84.92
2023-02-18T17:13:23.360Z,85.02
2023-02-18T17:15:54.026Z,84.72
2023-02-18T17:18:24.335Z,85.47
2023-02-18T17:20:53.674Z,85.55
2023-02-18T17:23:24.211Z,85.91
2023-02-18T17:25:53.678Z,86.10
2023-02-18T17:28:22.866Z,86.63
2023-02-18T17:30:57.813Z,87.19
2023-02-18T17:33:26.360Z,86.84
2023-02-18T17:35:54.350Z,86.55
2023-02-18T17:38:22.608Z,85.96
2023-02-18T17:40:50.868Z,86.60
2023-02-18T17:43:19.446Z,85.75
2023-02-18T17:45:50.959Z,85.15
2023-02-18T17:50:47.657Z,85.19
2023-02-18T17:53:17.253Z,85.15
2023-02-18T17:55:47.262Z,85.72
2023-02-18T17:58:16.359Z,85.53
2023-02-18T18:00:47.764Z,85.27
2023-02-18T18:03:16.619Z,85.43
2023-02-18T18:05:48.948Z,86.52
2023-02-18T18:08:18.938Z,86.00
2023-02-18T18:10:52.777Z,84.79
2023-02-18T18:13:34.769Z,84.67
2023-02-18T18:16:02.739Z,84.02
2023-02-18T18:18:31.178Z,85.50
2023-02-18T18:21:01.895Z,85.12
2023-02-18T18:23:30.174Z,85.76
2023-02-18T18:25:58.963Z,85.44
2023-02-18T18:28:27.769Z,86.71
2023-02-18T18:30:57.224Z,86.67
2023-02-18T18:33:31.823Z,86.50
2023-02-18T18:36:01.367Z,86.84
2023-02-18T18:38:30.093Z,87.01
2023-02-18T18:40:58.385Z,87.25
2023-02-18T18:43:32.491Z,87.17
2023-02-18T18:46:00.945Z,87.60
2023-02-18T18:48:29.239Z,88.31
2023-02-18T18:50:58.045Z,88.64
2023-02-18T18:53:31.551Z,87.97
2023-02-18T18:56:02.789Z,88.16
2023-02-18T18:58:31.759Z,88.75
2023-02-18T19:01:02.994Z,89.27
2023-02-18T19:03:34.037Z,89.40
2023-02-18T19:06:01.963Z,89.80
2023-02-18T19:08:32.098Z,89.42
2023-02-18T19:11:00.033Z,89.79
2023-02-18T19:13:31.152Z,89.43
2023-02-18T19:16:18.108Z,90.62
2023-02-18T19:18:47.303Z,91.43
2023-02-18T19:21:15.790Z,92.09
2023-02-18T19:23:44.235Z,92.48
2023-02-18T19:26:14.457Z,91.95
2023-02-18T19:28:43.480Z,92.50
2023-02-18T19:31:11.914Z,93.18
2023-02-18T19:33:40.359Z,93.28
2023-02-18T19:36:11.138Z,93.60
2023-02-18T19:38:39.703Z,94.06
2023-02-18T19:41:12.769Z,93.91
2023-02-18T19:43:42.968Z,94.02
2023-02-18T19:46:13.549Z,94.31
2023-02-18T19:48:42.579Z,94.10
2023-02-18T19:51:10.733Z,94.01
2023-02-18T19:53:39.420Z,94.00
2023-02-18T19:56:08.127Z,94.12
2023-02-18T19:58:37.431Z,94.33
2023-02-18T20:01:13.995Z,94.82
2023-02-18T20:03:43.380Z,94.27
2023-02-18T20:06:21.961Z,95.53
2023-02-18T20:08:50.271Z,95.83
2023-02-18T20:11:18.210Z,95.73
2023-02-18T20:13:48.012Z,96.28
2023-02-18T20:16:15.942Z,95.91
2023-02-18T20:18:44.169Z,95.49
2023-02-18T20:21:12.532Z,95.93
2023-02-18T20:23:41.378Z,96.25
2023-02-18T20:26:11.296Z,96.97
2023-02-18T20:28:39.571Z,96.22
2023-02-18T20:31:10.155Z,96.27
2023-02-18T20:33:39.237Z,96.49
2023-02-18T20:36:08.785Z,96.62
2023-02-18T20:38:38.001Z,96.97
2023-02-18T20:41:08.854Z,97.21
2023-02-18T20:58:04.830Z,97.95
2023-02-18T21:00:33.325Z,97.48
2023-02-18T21:03:01.342Z,97.58
2023-02-18T21:05:29.746Z,98.39
2023-02-18T21:07:57.758Z,98.39
2023-02-18T21:10:26.097Z,98.08
2023-02-18T21:12:53.986Z,97.72
2023-02-18T21:15:22.209Z,98.45
2023-02-18T21:17:50.125Z,98.79
2023-02-18T21:20:20.862Z,98.27
2023-02-18T21:22:48.806Z,98.27
2023-02-18T21:25:17.189Z,98.82
2023-02-18T21:27:45.046Z,99.72
2023-02-18T21:30:13.892Z,100.00
2023-02-18T21:32:41.832Z,98.70
2023-02-18T21:35:10.703Z,99.00
2023-02-18T21:37:38.654Z,99.68
2023-02-18T21:40:07.369Z,98.84
2023-02-18T21:42:35.430Z,98.42
2023-02-18T21:45:04.551Z,98.82
2023-02-18T21:47:32.519Z,99.61
2023-02-18T21:50:00.790Z,99.54
2023-02-18T21:52:28.832Z,99.53
2023-02-18T21:54:57.140Z,99.69
2023-02-18T21:57:25.316Z,99.29
2023-02-18T21:59:53.593Z,99.02
2023-02-18T22:02:26.598Z,99.06
2023-02-18T22:04:55.148Z,98.34
2023-02-18T22:07:27.964Z,98.94
2023-02-18T22:09:56.570Z,98.78
2023-02-18T22:12:25.226Z,98.10
2023-02-18T22:14:53.727Z,98.30
2023-02-18T22:17:21.844Z,98.56
2023-02-18T22:19:50.113Z,98.38
2023-02-18T22:22:18.299Z,98.43
2023-02-18T22:24:46.607Z,97.56
2023-02-18T22:27:14.898Z,97.62
2023-02-18T22:29:43.204Z,97.98
2023-02-18T22:32:11.222Z,97.20
2023-02-18T22:34:39.946Z,95.76
2023-02-18T22:37:08.411Z,96.63
2023-02-18T22:39:37.010Z,95.80
2023-02-18T22:42:05.534Z,95.62
2023-02-18T22:44:33.896Z,95.99
2023-02-18T22:47:01.858Z,95.56
2023-02-18T22:49:30.250Z,96.70
2023-02-18T22:51:58.112Z,96.51
2023-02-18T22:54:26.662Z,96.87
2023-02-18T22:56:55.019Z,95.39
2023-02-18T22:59:23.484Z,95.18
2023-02-18T23:01:53.291Z,95.27
2023-02-18T23:04:21.977Z,94.49
2023-02-18T23:06:50.619Z,94.51
2023-02-18T23:09:24.678Z,94.88
2023-02-18T23:11:55.369Z,94.47
2023-02-18T23:14:24.910Z,94.63
2023-02-18T23:17:14.706Z,94.49
2023-02-18T23:19:54.196Z,95.19
2023-02-18T23:22:33.791Z,96.18
2023-02-18T23:25:02.586Z,95.39
2023-02-18T23:27:30.653Z,95.71
2023-02-18T23:29:58.978Z,95.33
2023-02-18T23:32:29.089Z,96.67
2023-02-18T23:34:57.454Z,95.23
2023-02-18T23:37:45.293Z,94.42
2023-02-18T23:40:14.997Z,94.30
2023-02-18T23:42:43.406Z,93.90
2023-02-18T23:45:11.348Z,94.69
2023-02-18T23:47:39.595Z,95.68
2023-02-18T23:50:07.666Z,95.57
2023-02-18T23:52:35.941Z,94.71
2023-02-18T23:55:04.101Z,95.23
2023-02-18T23:57:33.159Z,94.13
